In Rescue
 
Open Full Screen Window  High Contrast Mode
Wind Gusting 17 knots
12
May 13, 2021 10:55 AM CDT
Weather Information
Wind Direction
  190 °
Wind Speed
  12 kt (14 mph)
Wind Gust
  17 kt (20 mph)
Altimeter
30.15 in
Visibility
10 SM
Temperature
21° C
70° F
Dewpoint
-01° C
30° F
Humidity
23%
1hr Rain Fall
00.00 in.
24hr Rain Fall
00.00 in.
Sky Condition
Clear
VFR

METAR KHCO 131555Z AUTO 19012G17KT 10SM CLR 21/M01 A3015 RMK AO2

FAA Disclaimer: The data displayed is for advisory purposes only and is not to be used for flight planning or operations.